createdAt,value
2018-01-22T00:01:34.578Z,14.33
2018-01-22T00:07:20.937Z,15.30
2018-01-22T00:12:50.927Z,11.63
2018-01-22T00:15:20.662Z,14.13
2018-01-22T00:24:04.136Z,13.87
2018-01-22T00:29:37.016Z,11.07
2018-01-22T00:35:02.752Z,12.90
2018-01-22T00:37:33.760Z,12.50
2018-01-22T00:48:35.772Z,17.07
2018-01-22T00:51:22.544Z,14.50
2018-01-22T01:06:58.281Z,14.20
2018-01-22T01:12:42.573Z,10.27
2018-01-22T01:17:51.872Z,14.43
2018-01-22T01:23:10.431Z,13.33
2018-01-22T01:31:03.164Z,9.30
2018-01-22T01:33:37.049Z,16.33
2018-01-22T03:10:06.580Z,9.30
2018-01-22T04:16:11.446Z,8.27
2018-01-22T04:21:31.705Z,7.57
2018-01-22T04:30:43.348Z,8.57
2018-01-22T04:33:12.466Z,8.40
2018-01-22T04:35:53.072Z,8.33
2018-01-22T04:38:43.514Z,8.10
2018-01-22T04:41:18.086Z,7.83
2018-01-22T04:49:25.412Z,7.40
2018-01-22T04:54:27.602Z,7.27
2018-01-22T05:09:28.092Z,7.03
2018-01-22T05:11:58.189Z,7.33
2018-01-22T05:21:52.997Z,6.67
2018-01-22T05:27:26.553Z,5.83
2018-01-22T05:29:58.972Z,9.80
2018-01-22T05:35:30.068Z,6.70
2018-01-22T05:40:34.382Z,10.60
2018-01-22T05:43:06.045Z,7.20
2018-01-22T05:45:40.130Z,9.00
2018-01-22T05:48:08.506Z,9.10
2018-01-22T06:00:48.990Z,8.40
2018-01-22T06:12:04.341Z,8.40
2018-01-22T06:17:23.182Z,8.07
2018-01-22T06:25:47.249Z,9.77
2018-01-22T06:28:15.897Z,10.70
2018-01-22T06:30:50.466Z,10.63
2018-01-22T06:33:26.597Z,9.70
2018-01-22T06:35:55.971Z,10.70
2018-01-22T06:41:04.749Z,9.03
2018-01-22T06:43:32.882Z,9.23
2018-01-22T06:46:04.053Z,10.03
2018-01-22T06:48:38.525Z,10.07
2018-01-22T06:51:10.959Z,8.57
2018-01-22T06:53:41.416Z,8.47
2018-01-22T06:56:10.802Z,9.77
2018-01-22T06:58:42.891Z,7.93
2018-01-22T07:04:33.852Z,15.23
2018-01-22T07:07:01.979Z,9.30
2018-01-22T07:09:30.100Z,10.53
2018-01-22T07:12:00.474Z,8.90
2018-01-22T07:14:39.537Z,10.60
2018-01-22T07:17:07.730Z,9.77
2018-01-22T07:19:39.936Z,11.77
2018-01-22T07:22:08.672Z,12.73
2018-01-22T07:24:40.602Z,12.13
2018-01-22T07:30:32.212Z,14.83
2018-01-22T07:33:04.548Z,13.43
2018-01-22T07:42:52.339Z,13.57
2018-01-22T07:45:21.239Z,19.13
2018-01-22T07:47:49.595Z,19.13
2018-01-22T07:50:18.408Z,15.37
2018-01-22T07:52:49.634Z,19.33
2018-01-22T07:55:21.885Z,23.20
2018-01-22T08:01:24.666Z,23.77
2018-01-22T08:04:02.689Z,20.03
2018-01-22T08:06:49.500Z,19.40
2018-01-22T08:09:19.447Z,21.40
2018-01-22T08:12:03.437Z,24.33
2018-01-22T08:25:09.231Z,21.70
2018-01-22T08:27:40.861Z,28.83
2018-01-22T08:30:08.973Z,31.37
2018-01-22T08:32:46.367Z,29.00
2018-01-22T08:35:14.691Z,31.57
2018-01-22T08:37:51.993Z,31.30
2018-01-22T08:40:32.154Z,31.73
2018-01-22T08:43:02.126Z,29.57
2018-01-22T08:45:30.617Z,41.33
2018-01-22T08:48:01.104Z,32.93
2018-01-22T08:50:31.229Z,30.40
2018-01-22T08:52:59.580Z,36.80
2018-01-22T08:55:33.451Z,34.20
2018-01-22T08:58:01.576Z,33.63
2018-01-22T09:00:29.785Z,35.20
2018-01-22T09:03:00.371Z,51.17
2018-01-22T09:05:28.512Z,44.67
2018-01-22T09:07:56.620Z,54.77
2018-01-22T09:10:26.619Z,95.50
2018-01-22T09:15:39.117Z,51.90
2018-01-22T09:18:09.709Z,43.90
2018-01-22T09:20:41.194Z,53.07
2018-01-22T09:23:11.375Z,57.50
2018-01-22T09:25:41.952Z,58.97
2018-01-22T09:28:10.523Z,59.70
2018-01-22T09:30:38.636Z,61.63
2018-01-22T09:33:15.481Z,57.80
2018-01-22T09:35:49.429Z,81.70
2018-01-22T09:38:26.426Z,78.10
2018-01-22T09:41:01.463Z,77.87
2018-01-22T09:43:36.538Z,84.63
2018-01-22T09:46:07.466Z,114.83
2018-01-22T09:48:48.726Z,84.27
2018-01-22T09:51:26.674Z,83.60
2018-01-22T09:54:04.024Z,152.00
2018-01-22T09:56:34.260Z,91.23
2018-01-22T09:59:32.375Z,96.87
2018-01-22T10:02:01.877Z,96.33
2018-01-22T10:04:37.436Z,100.77
2018-01-22T10:10:44.947Z,115.53
2018-01-22T10:13:14.765Z,137.57
2018-01-22T10:15:45.852Z,127.13
2018-01-22T10:18:16.586Z,131.97
2018-01-22T10:20:47.193Z,142.67
2018-01-22T10:23:17.403Z,238.67
2018-01-22T10:25:48.721Z,170.47
2018-01-22T10:28:20.429Z,149.17
2018-01-22T10:30:49.756Z,158.33
2018-01-22T10:33:17.932Z,147.27
2018-01-22T10:35:47.324Z,141.50
2018-01-22T10:38:15.432Z,142.13
2018-01-22T10:43:26.703Z,144.17
2018-01-22T10:45:54.907Z,157.80
2018-01-22T10:58:59.459Z,174.67
2018-01-22T11:07:09.829Z,195.20
2018-01-22T11:09:46.010Z,206.63
2018-01-22T11:12:16.506Z,187.37
2018-01-22T11:14:58.633Z,182.00
2018-01-22T11:17:27.840Z,187.80
2018-01-22T11:19:57.554Z,245.97
2018-01-22T11:22:35.899Z,230.70
2018-01-22T11:25:11.847Z,223.93
2018-01-22T11:27:41.710Z,229.47
2018-01-22T11:30:11.477Z,213.37
2018-01-22T11:32:41.592Z,213.73
2018-01-22T11:35:09.976Z,230.77
2018-01-22T11:37:41.792Z,212.10
2018-01-22T11:40:13.369Z,227.47
2018-01-22T11:42:41.527Z,203.57
2018-01-22T11:45:10.490Z,216.13
2018-01-22T11:47:38.612Z,177.03
2018-01-22T11:52:46.565Z,161.40
2018-01-22T11:55:19.729Z,185.97
2018-01-22T11:57:49.031Z,169.37
2018-01-22T12:00:18.109Z,150.47
2018-01-22T12:02:46.220Z,147.00
2018-01-22T12:05:18.038Z,133.77
2018-01-22T12:07:50.103Z,140.80
2018-01-22T12:10:25.144Z,120.57
2018-01-22T12:15:35.490Z,109.73
2018-01-22T12:18:05.333Z,109.73
2018-01-22T12:20:34.276Z,96.27
2018-01-22T12:23:14.538Z,96.93
2018-01-22T12:25:46.019Z,95.60
2018-01-22T12:28:17.203Z,72.13
2018-01-22T12:30:57.136Z,99.57
2018-01-22T12:36:01.651Z,66.40
2018-01-22T12:38:41.484Z,58.30
2018-01-22T12:44:19.871Z,61.27
2018-01-22T12:46:55.521Z,48.47
2018-01-22T12:49:26.754Z,53.40
2018-01-22T12:51:56.641Z,54.93
2018-01-22T12:54:28.681Z,59.33
2018-01-22T12:56:58.393Z,47.83
2018-01-22T12:59:29.073Z,53.17
2018-01-22T13:01:59.765Z,38.43
2018-01-22T13:04:31.001Z,41.67
2018-01-22T13:07:02.516Z,44.43
2018-01-22T13:09:32.389Z,34.33
2018-01-22T13:12:02.244Z,39.07
2018-01-22T13:14:30.376Z,35.90
2018-01-22T13:16:58.503Z,41.93
2018-01-22T13:19:31.415Z,24.07
2018-01-22T13:28:17.581Z,23.73
2018-01-22T13:30:46.835Z,28.90
2018-01-22T13:41:27.764Z,26.37
2018-01-22T13:46:42.907Z,27.27
2018-01-22T13:49:15.547Z,31.90
2018-01-22T13:51:46.304Z,40.97
2018-01-22T13:54:16.174Z,29.00
2018-01-22T13:59:41.062Z,24.27
2018-01-22T14:02:15.059Z,32.93
2018-01-22T14:04:44.801Z,25.03
2018-01-22T14:07:16.553Z,26.33
2018-01-22T14:09:47.576Z,30.17
2018-01-22T14:12:15.745Z,24.53
2018-01-22T14:14:43.905Z,27.63
2018-01-22T14:17:12.052Z,34.97
2018-01-22T14:19:40.190Z,27.60
2018-01-22T14:22:08.275Z,24.70
2018-01-22T14:24:36.426Z,27.97
2018-01-22T14:27:04.557Z,27.50
2018-01-22T14:29:33.415Z,31.53
2018-01-22T14:32:01.595Z,28.37
2018-01-22T14:34:29.714Z,24.87
2018-01-22T14:37:00.312Z,28.17
2018-01-22T14:39:29.494Z,36.57
2018-01-22T14:41:57.609Z,25.93
2018-01-22T14:44:25.736Z,27.80
2018-01-22T14:46:53.895Z,37.73
2018-01-22T14:49:21.991Z,35.17
2018-01-22T14:51:50.112Z,27.40
2018-01-22T14:54:20.728Z,26.97
2018-01-22T14:56:50.554Z,32.97
2018-01-22T14:59:18.705Z,30.37
2018-01-22T15:01:47.571Z,30.10
2018-01-22T15:04:15.719Z,24.07
2018-01-22T15:06:43.850Z,32.20
2018-01-22T15:09:11.971Z,31.27
2018-01-22T15:11:40.085Z,23.97
2018-01-22T15:14:08.220Z,26.30
2018-01-22T15:16:36.322Z,35.93
2018-01-22T15:19:05.223Z,34.77
2018-01-22T15:21:34.102Z,32.73
2018-01-22T15:24:10.528Z,26.50
2018-01-22T15:26:54.380Z,22.80
2018-01-22T15:29:22.582Z,23.37
2018-01-22T15:31:51.615Z,32.07
2018-01-22T15:34:19.755Z,21.43
2018-01-22T15:36:49.667Z,24.80
2018-01-22T15:39:18.081Z,32.23
2018-01-22T15:41:46.254Z,19.33
2018-01-22T15:44:15.299Z,26.53
2018-01-22T15:46:43.463Z,18.53
2018-01-22T15:49:11.615Z,24.87
2018-01-22T15:51:39.714Z,26.53
2018-01-22T15:54:13.817Z,31.47
2018-01-22T15:56:43.891Z,27.93
2018-01-22T15:59:12.075Z,19.27
2018-01-22T16:01:40.185Z,24.23
2018-01-22T16:04:14.910Z,31.80
2018-01-22T16:06:43.026Z,36.57
2018-01-22T16:09:13.318Z,30.70
2018-01-22T16:11:44.491Z,26.70
2018-01-22T16:14:13.543Z,19.07
2018-01-22T16:16:43.125Z,25.20
2018-01-22T17:47:51.408Z,26.87
2018-01-22T17:50:20.673Z,29.20
2018-01-22T17:55:52.303Z,30.93
2018-01-22T18:01:40.993Z,37.20
2018-01-22T18:04:14.557Z,36.63
2018-01-22T18:06:43.496Z,37.73
2018-01-22T18:09:12.667Z,27.07
2018-01-22T18:16:03.536Z,28.63
2018-01-22T18:21:26.482Z,37.60
2018-01-22T18:29:57.798Z,35.30
2018-01-22T18:32:25.934Z,34.17
2018-01-22T18:38:57.609Z,34.07
2018-01-22T18:41:25.719Z,36.17
2018-01-22T18:44:03.882Z,35.17
2018-01-22T18:46:33.904Z,37.87
2018-01-22T18:57:46.974Z,35.30
2018-01-22T19:03:29.190Z,38.90
2018-01-22T19:25:44.268Z,43.77
2018-01-22T19:28:34.933Z,46.27
2018-01-22T19:31:06.814Z,88.60
2018-01-22T19:33:35.043Z,34.90
2018-01-22T19:38:48.947Z,37.67
2018-01-22T19:41:17.189Z,46.47
2018-01-22T19:46:28.440Z,42.87
2018-01-22T19:48:59.679Z,33.10
2018-01-22T19:51:27.871Z,42.90
2018-01-22T19:54:04.907Z,44.30
2018-01-22T19:56:55.812Z,39.10
2018-01-22T19:59:24.063Z,39.43
2018-01-22T20:04:28.335Z,37.97
2018-01-22T20:06:59.569Z,49.40
2018-01-22T20:09:32.912Z,36.77
2018-01-22T20:12:05.496Z,41.00
2018-01-22T20:14:33.689Z,48.03
2018-01-22T20:17:03.487Z,50.93
2018-01-22T20:19:33.168Z,51.07
2018-01-22T20:22:05.353Z,49.20
2018-01-22T20:24:35.305Z,42.30
2018-01-22T20:27:05.849Z,49.20
2018-01-22T20:29:34.995Z,43.03
2018-01-22T20:32:03.953Z,40.00
2018-01-22T20:34:34.822Z,58.93
2018-01-22T20:37:03.613Z,51.80
2018-01-22T20:39:32.806Z,42.23
2018-01-22T20:42:02.135Z,49.07
2018-01-22T20:44:30.282Z,56.33
2018-01-22T20:53:29.282Z,47.60
2018-01-22T20:59:02.948Z,43.73
2018-01-22T21:01:31.347Z,58.43
2018-01-22T21:04:01.848Z,40.27
2018-01-22T21:06:32.987Z,50.03
2018-01-22T21:09:01.203Z,58.30
2018-01-22T21:11:32.919Z,44.57
2018-01-22T21:14:01.308Z,48.23
2018-01-22T21:16:29.422Z,53.00
2018-01-22T21:19:00.616Z,53.37
2018-01-22T21:21:31.593Z,45.27
2018-01-22T21:24:04.768Z,41.53
2018-01-22T21:26:35.670Z,45.63
2018-01-22T21:29:04.869Z,50.50
2018-01-22T21:31:32.996Z,37.20
2018-01-22T21:34:03.249Z,32.70
2018-01-22T21:36:36.152Z,49.17
2018-01-22T21:39:20.177Z,41.90
2018-01-22T21:41:49.580Z,37.43
2018-01-22T21:50:03.958Z,31.07
2018-01-22T21:58:57.357Z,42.33
2018-01-22T22:17:10.157Z,38.23
2018-01-22T22:22:59.601Z,47.33
2018-01-22T22:28:14.671Z,47.10
2018-01-22T22:37:25.677Z,39.40
2018-01-22T22:39:58.209Z,32.00
2018-01-22T22:49:27.104Z,45.73
2018-01-22T22:51:59.188Z,38.27
2018-01-22T22:57:04.862Z,40.20
2018-01-22T23:06:55.664Z,39.03
2018-01-22T23:09:27.647Z,38.40
2018-01-22T23:11:55.763Z,46.03
2018-01-22T23:26:44.736Z,40.33
2018-01-22T23:31:56.774Z,48.77
2018-01-22T23:34:25.843Z,41.63
2018-01-22T23:37:09.792Z,39.53
2018-01-22T23:39:37.904Z,26.63
2018-01-22T23:42:09.954Z,58.87
2018-01-22T23:44:42.028Z,37.97
2018-01-22T23:49:43.421Z,37.87
2018-01-22T23:54:55.182Z,46.37
